sensor_id;sensor_type;location;lat;lon;timestamp;temperature;humidity
74101;DHT22;62462;52.530;21.682;2023-04-28T00:00:17;5.90;60.70
74101;DHT22;62462;52.530;21.682;2023-04-28T00:02:43;5.90;60.50
74101;DHT22;62462;52.530;21.682;2023-04-28T00:05:10;5.80;61.00
74101;DHT22;62462;52.530;21.682;2023-04-28T00:07:36;5.90;60.70
74101;DHT22;62462;52.530;21.682;2023-04-28T00:10:02;5.90;60.80
74101;DHT22;62462;52.530;21.682;2023-04-28T00:12:28;5.80;61.00
74101;DHT22;62462;52.530;21.682;2023-04-28T00:14:53;5.80;61.00
74101;DHT22;62462;52.530;21.682;2023-04-28T00:17:20;5.80;60.90
74101;DHT22;62462;52.530;21.682;2023-04-28T00:19:46;5.80;60.70
74101;DHT22;62462;52.530;21.682;2023-04-28T00:22:11;5.70;60.60
74101;DHT22;62462;52.530;21.682;2023-04-28T00:24:37;5.70;60.60
74101;DHT22;62462;52.530;21.682;2023-04-28T00:27:03;5.60;60.90
74101;DHT22;62462;52.530;21.682;2023-04-28T00:29:29;5.50;61.60
74101;DHT22;62462;52.530;21.682;2023-04-28T00:31:54;5.50;61.50
74101;DHT22;62462;52.530;21.682;2023-04-28T00:34:20;5.50;61.40
74101;DHT22;62462;52.530;21.682;2023-04-28T00:36:46;5.50;61.00
74101;DHT22;62462;52.530;21.682;2023-04-28T00:39:11;5.60;61.20
74101;DHT22;62462;52.530;21.682;2023-04-28T00:41:37;5.50;61.20
74101;DHT22;62462;52.530;21.682;2023-04-28T00:44:03;5.60;61.20
74101;DHT22;62462;52.530;21.682;2023-04-28T00:46:29;5.60;61.10
74101;DHT22;62462;52.530;21.682;2023-04-28T00:48:56;5.50;61.00
74101;DHT22;62462;52.530;21.682;2023-04-28T00:51:22;5.40;61.30
74101;DHT22;62462;52.530;21.682;2023-04-28T00:53:49;5.40;61.60
74101;DHT22;62462;52.530;21.682;2023-04-28T00:56:15;5.40;61.60
74101;DHT22;62462;52.530;21.682;2023-04-28T00:58:41;5.40;60.90
74101;DHT22;62462;52.530;21.682;2023-04-28T01:01:08;5.40;60.80
74101;DHT22;62462;52.530;21.682;2023-04-28T01:03:36;5.30;61.10
74101;DHT22;62462;52.530;21.682;2023-04-28T01:06:03;5.30;61.20
74101;DHT22;62462;52.530;21.682;2023-04-28T01:08:30;5.30;61.60
74101;DHT22;62462;52.530;21.682;2023-04-28T01:10:56;5.20;61.60
74101;DHT22;62462;52.530;21.682;2023-04-28T01:13:23;5.20;61.90
74101;DHT22;62462;52.530;21.682;2023-04-28T01:15:49;5.10;61.90
74101;DHT22;62462;52.530;21.682;2023-04-28T01:18:15;5.00;62.20
74101;DHT22;62462;52.530;21.682;2023-04-28T01:20:41;5.00;62.70
74101;DHT22;62462;52.530;21.682;2023-04-28T01:23:14;5.00;62.80
74101;DHT22;62462;52.530;21.682;2023-04-28T01:25:41;5.10;61.90
74101;DHT22;62462;52.530;21.682;2023-04-28T01:28:08;5.10;61.80
74101;DHT22;62462;52.530;21.682;2023-04-28T01:30:33;5.10;61.80
74101;DHT22;62462;52.530;21.682;2023-04-28T01:33:00;5.00;62.30
74101;DHT22;62462;52.530;21.682;2023-04-28T01:35:26;5.00;62.00
74101;DHT22;62462;52.530;21.682;2023-04-28T01:37:52;5.00;61.70
74101;DHT22;62462;52.530;21.682;2023-04-28T01:40:18;5.10;61.50
74101;DHT22;62462;52.530;21.682;2023-04-28T01:42:44;5.00;61.70
74101;DHT22;62462;52.530;21.682;2023-04-28T01:45:10;4.90;62.10
74101;DHT22;62462;52.530;21.682;2023-04-28T01:47:36;4.80;62.40
74101;DHT22;62462;52.530;21.682;2023-04-28T01:50:01;4.80;62.40
74101;DHT22;62462;52.530;21.682;2023-04-28T01:52:27;4.80;62.10
74101;DHT22;62462;52.530;21.682;2023-04-28T01:54:53;4.90;62.10
74101;DHT22;62462;52.530;21.682;2023-04-28T01:57:19;4.80;61.90
74101;DHT22;62462;52.530;21.682;2023-04-28T01:59:45;4.70;61.60
74101;DHT22;62462;52.530;21.682;2023-04-28T02:02:11;4.80;61.90
74101;DHT22;62462;52.530;21.682;2023-04-28T02:04:40;4.70;61.70
74101;DHT22;62462;52.530;21.682;2023-04-28T02:07:06;4.50;62.50
74101;DHT22;62462;52.530;21.682;2023-04-28T02:09:32;4.40;63.10
74101;DHT22;62462;52.530;21.682;2023-04-28T02:11:58;4.30;63.70
74101;DHT22;62462;52.530;21.682;2023-04-28T02:14:25;4.30;63.10
74101;DHT22;62462;52.530;21.682;2023-04-28T02:16:51;4.40;62.70
74101;DHT22;62462;52.530;21.682;2023-04-28T02:19:17;4.50;62.40
74101;DHT22;62462;52.530;21.682;2023-04-28T02:21:42;4.50;62.40
74101;DHT22;62462;52.530;21.682;2023-04-28T02:24:08;4.60;62.20
74101;DHT22;62462;52.530;21.682;2023-04-28T02:26:34;4.60;62.00
74101;DHT22;62462;52.530;21.682;2023-04-28T02:29:00;4.60;61.90
74101;DHT22;62462;52.530;21.682;2023-04-28T02:31:26;4.50;61.70
74101;DHT22;62462;52.530;21.682;2023-04-28T02:33:51;4.40;62.10
74101;DHT22;62462;52.530;21.682;2023-04-28T02:36:17;4.40;62.10
74101;DHT22;62462;52.530;21.682;2023-04-28T02:38:43;4.40;62.40
74101;DHT22;62462;52.530;21.682;2023-04-28T02:41:09;4.40;62.70
74101;DHT22;62462;52.530;21.682;2023-04-28T02:43:36;4.30;63.60
74101;DHT22;62462;52.530;21.682;2023-04-28T02:46:03;4.20;62.90
74101;DHT22;62462;52.530;21.682;2023-04-28T02:48:29;4.20;62.80
74101;DHT22;62462;52.530;21.682;2023-04-28T02:50:55;4.30;62.70
74101;DHT22;62462;52.530;21.682;2023-04-28T02:53:21;4.30;62.50
74101;DHT22;62462;52.530;21.682;2023-04-28T02:55:47;4.20;63.00
74101;DHT22;62462;52.530;21.682;2023-04-28T02:58:13;4.00;63.80
74101;DHT22;62462;52.530;21.682;2023-04-28T03:00:39;4.00;63.70
74101;DHT22;62462;52.530;21.682;2023-04-28T03:03:05;4.00;63.20
74101;DHT22;62462;52.530;21.682;2023-04-28T03:05:30;4.10;63.50
74101;DHT22;62462;52.530;21.682;2023-04-28T03:07:56;4.00;63.50
74101;DHT22;62462;52.530;21.682;2023-04-28T03:10:22;4.10;63.30
74101;DHT22;62462;52.530;21.682;2023-04-28T03:12:48;4.00;62.90
74101;DHT22;62462;52.530;21.682;2023-04-28T03:15:13;4.00;63.10
74101;DHT22;62462;52.530;21.682;2023-04-28T03:17:39;4.10;62.90
74101;DHT22;62462;52.530;21.682;2023-04-28T03:20:07;4.10;62.40
74101;DHT22;62462;52.530;21.682;2023-04-28T03:22:34;4.20;62.40
74101;DHT22;62462;52.530;21.682;2023-04-28T03:24:59;4.10;62.50
74101;DHT22;62462;52.530;21.682;2023-04-28T03:27:26;4.10;62.60
74101;DHT22;62462;52.530;21.682;2023-04-28T03:29:52;4.10;62.80
74101;DHT22;62462;52.530;21.682;2023-04-28T03:32:18;4.00;63.10
74101;DHT22;62462;52.530;21.682;2023-04-28T03:34:43;3.90;63.10
74101;DHT22;62462;52.530;21.682;2023-04-28T03:37:09;4.00;63.20
74101;DHT22;62462;52.530;21.682;2023-04-28T03:39:35;4.00;63.50
74101;DHT22;62462;52.530;21.682;2023-04-28T03:42:01;4.10;63.10
74101;DHT22;62462;52.530;21.682;2023-04-28T03:44:27;4.10;63.00
74101;DHT22;62462;52.530;21.682;2023-04-28T03:46:52;4.20;62.80
74101;DHT22;62462;52.530;21.682;2023-04-28T03:49:18;4.20;62.70
74101;DHT22;62462;52.530;21.682;2023-04-28T03:51:44;4.30;62.80
74101;DHT22;62462;52.530;21.682;2023-04-28T03:54:10;4.30;62.70
74101;DHT22;62462;52.530;21.682;2023-04-28T03:56:36;4.30;62.70
74101;DHT22;62462;52.530;21.682;2023-04-28T03:59:01;4.30;63.00
74101;DHT22;62462;52.530;21.682;2023-04-28T04:01:27;4.30;62.90
74101;DHT22;62462;52.530;21.682;2023-04-28T04:03:53;4.20;63.50
74101;DHT22;62462;52.530;21.682;2023-04-28T04:06:20;4.20;64.00
74101;DHT22;62462;52.530;21.682;2023-04-28T04:08:46;4.30;63.90
74101;DHT22;62462;52.530;21.682;2023-04-28T04:11:11;4.30;63.70
74101;DHT22;62462;52.530;21.682;2023-04-28T04:13:37;4.30;64.00
74101;DHT22;62462;52.530;21.682;2023-04-28T04:16:03;4.30;64.70
74101;DHT22;62462;52.530;21.682;2023-04-28T04:18:29;4.40;64.90
74101;DHT22;62462;52.530;21.682;2023-04-28T04:20:55;4.50;64.60
74101;DHT22;62462;52.530;21.682;2023-04-28T04:23:22;4.60;64.40
74101;DHT22;62462;52.530;21.682;2023-04-28T04:25:48;4.70;64.60
74101;DHT22;62462;52.530;21.682;2023-04-28T04:28:14;4.80;64.50
74101;DHT22;62462;52.530;21.682;2023-04-28T04:30:40;4.90;64.40
74101;DHT22;62462;52.530;21.682;2023-04-28T04:33:06;4.90;64.90
74101;DHT22;62462;52.530;21.682;2023-04-28T04:35:32;5.00;65.10
74101;DHT22;62462;52.530;21.682;2023-04-28T04:37:58;5.10;64.90
74101;DHT22;62462;52.530;21.682;2023-04-28T04:40:24;5.20;65.00
74101;DHT22;62462;52.530;21.682;2023-04-28T04:42:50;5.40;65.10
74101;DHT22;62462;52.530;21.682;2023-04-28T04:45:15;5.50;65.20
74101;DHT22;62462;52.530;21.682;2023-04-28T04:47:42;5.60;64.90
74101;DHT22;62462;52.530;21.682;2023-04-28T04:50:09;5.70;64.90
74101;DHT22;62462;52.530;21.682;2023-04-28T04:52:35;5.80;64.80
74101;DHT22;62462;52.530;21.682;2023-04-28T04:55:02;5.90;65.00
74101;DHT22;62462;52.530;21.682;2023-04-28T04:57:28;6.00;64.90
74101;DHT22;62462;52.530;21.682;2023-04-28T04:59:54;6.10;65.00
74101;DHT22;62462;52.530;21.682;2023-04-28T05:02:19;6.20;65.00
74101;DHT22;62462;52.530;21.682;2023-04-28T05:04:45;6.30;65.10
74101;DHT22;62462;52.530;21.682;2023-04-28T05:07:11;6.40;64.90
74101;DHT22;62462;52.530;21.682;2023-04-28T05:09:37;6.40;65.00
74101;DHT22;62462;52.530;21.682;2023-04-28T05:12:03;6.50;64.90
74101;DHT22;62462;52.530;21.682;2023-04-28T05:14:28;6.50;64.70
74101;DHT22;62462;52.530;21.682;2023-04-28T05:16:54;6.70;64.70
74101;DHT22;62462;52.530;21.682;2023-04-28T05:19:20;6.80;64.80
74101;DHT22;62462;52.530;21.682;2023-04-28T05:21:45;6.90;64.50
74101;DHT22;62462;52.530;21.682;2023-04-28T05:24:17;7.00;64.60
74101;DHT22;62462;52.530;21.682;2023-04-28T05:26:42;7.10;64.90
74101;DHT22;62462;52.530;21.682;2023-04-28T05:29:08;7.20;64.50
74101;DHT22;62462;52.530;21.682;2023-04-28T05:31:34;7.40;64.40
74101;DHT22;62462;52.530;21.682;2023-04-28T05:33:59;7.50;64.00
74101;DHT22;62462;52.530;21.682;2023-04-28T05:36:26;7.60;63.80
74101;DHT22;62462;52.530;21.682;2023-04-28T05:38:51;7.70;63.90
74101;DHT22;62462;52.530;21.682;2023-04-28T05:41:17;7.80;63.30
74101;DHT22;62462;52.530;21.682;2023-04-28T05:43:43;7.80;63.40
74101;DHT22;62462;52.530;21.682;2023-04-28T05:46:10;7.90;63.30
74101;DHT22;62462;52.530;21.682;2023-04-28T05:48:36;8.10;63.40
74101;DHT22;62462;52.530;21.682;2023-04-28T05:51:02;8.10;63.60
74101;DHT22;62462;52.530;21.682;2023-04-28T05:53:28;8.20;63.10
74101;DHT22;62462;52.530;21.682;2023-04-28T05:55:53;8.30;62.90
74101;DHT22;62462;52.530;21.682;2023-04-28T05:58:19;8.50;62.50
74101;DHT22;62462;52.530;21.682;2023-04-28T06:00:45;8.50;62.20
74101;DHT22;62462;52.530;21.682;2023-04-28T06:03:11;8.70;62.20
74101;DHT22;62462;52.530;21.682;2023-04-28T06:05:39;8.80;61.90
74101;DHT22;62462;52.530;21.682;2023-04-28T06:08:05;9.00;61.20
74101;DHT22;62462;52.530;21.682;2023-04-28T06:10:32;9.20;61.30
74101;DHT22;62462;52.530;21.682;2023-04-28T06:12:58;9.30;61.00
74101;DHT22;62462;52.530;21.682;2023-04-28T06:15:23;9.50;59.50
74101;DHT22;62462;52.530;21.682;2023-04-28T06:17:49;9.60;59.60
74101;DHT22;62462;52.530;21.682;2023-04-28T06:20:15;9.70;56.80
74101;DHT22;62462;52.530;21.682;2023-04-28T06:22:41;9.60;56.30
74101;DHT22;62462;52.530;21.682;2023-04-28T06:25:07;9.60;56.20
74101;DHT22;62462;52.530;21.682;2023-04-28T06:27:33;9.60;56.90
74101;DHT22;62462;52.530;21.682;2023-04-28T06:29:59;9.60;56.50
74101;DHT22;62462;52.530;21.682;2023-04-28T06:32:25;9.70;56.20
74101;DHT22;62462;52.530;21.682;2023-04-28T06:34:51;9.90;56.30
74101;DHT22;62462;52.530;21.682;2023-04-28T06:37:16;10.00;52.70
74101;DHT22;62462;52.530;21.682;2023-04-28T06:39:43;10.10;55.10
74101;DHT22;62462;52.530;21.682;2023-04-28T06:42:09;10.30;55.60
74101;DHT22;62462;52.530;21.682;2023-04-28T06:44:34;10.50;54.20
74101;DHT22;62462;52.530;21.682;2023-04-28T06:47:00;10.60;51.50
74101;DHT22;62462;52.530;21.682;2023-04-28T06:49:26;10.60;50.60
74101;DHT22;62462;52.530;21.682;2023-04-28T06:51:52;10.60;51.80
74101;DHT22;62462;52.530;21.682;2023-04-28T06:54:18;10.80;53.30
74101;DHT22;62462;52.530;21.682;2023-04-28T06:56:43;11.00;53.40
74101;DHT22;62462;52.530;21.682;2023-04-28T06:59:09;11.20;50.50
74101;DHT22;62462;52.530;21.682;2023-04-28T07:01:35;11.20;48.70
74101;DHT22;62462;52.530;21.682;2023-04-28T07:04:01;11.30;51.50
74101;DHT22;62462;52.530;21.682;2023-04-28T07:06:26;11.60;52.00
74101;DHT22;62462;52.530;21.682;2023-04-28T07:08:53;11.70;52.60
74101;DHT22;62462;52.530;21.682;2023-04-28T07:11:19;11.90;50.10
74101;DHT22;62462;52.530;21.682;2023-04-28T07:13:44;11.90;47.30
74101;DHT22;62462;52.530;21.682;2023-04-28T07:16:17;11.80;46.50
74101;DHT22;62462;52.530;21.682;2023-04-28T07:18:43;11.80;47.70
74101;DHT22;62462;52.530;21.682;2023-04-28T07:21:10;11.80;45.30
74101;DHT22;62462;52.530;21.682;2023-04-28T07:23:36;11.60;44.50
74101;DHT22;62462;52.530;21.682;2023-04-28T07:26:03;11.70;46.40
74101;DHT22;62462;52.530;21.682;2023-04-28T07:28:29;11.90;47.90
74101;DHT22;62462;52.530;21.682;2023-04-28T07:30:55;12.10;47.60
74101;DHT22;62462;52.530;21.682;2023-04-28T07:33:21;12.30;47.50
74101;DHT22;62462;52.530;21.682;2023-04-28T07:35:47;12.40;45.60
74101;DHT22;62462;52.530;21.682;2023-04-28T07:38:14;12.50;44.00
74101;DHT22;62462;52.530;21.682;2023-04-28T07:40:42;12.60;43.70
74101;DHT22;62462;52.530;21.682;2023-04-28T07:43:08;12.80;44.70
74101;DHT22;62462;52.530;21.682;2023-04-28T07:45:38;12.90;45.20
74101;DHT22;62462;52.530;21.682;2023-04-28T07:48:04;13.00;42.90
74101;DHT22;62462;52.530;21.682;2023-04-28T07:50:30;13.00;39.50
74101;DHT22;62462;52.530;21.682;2023-04-28T07:52:57;12.90;40.60
74101;DHT22;62462;52.530;21.682;2023-04-28T07:55:23;12.60;40.20
74101;DHT22;62462;52.530;21.682;2023-04-28T07:57:49;12.20;40.00
74101;DHT22;62462;52.530;21.682;2023-04-28T08:00:15;11.90;41.40
74101;DHT22;62462;52.530;21.682;2023-04-28T08:02:41;11.70;40.80
74101;DHT22;62462;52.530;21.682;2023-04-28T08:05:07;11.40;41.60
74101;DHT22;62462;52.530;21.682;2023-04-28T08:07:34;11.30;42.60
74101;DHT22;62462;52.530;21.682;2023-04-28T08:09:59;11.10;41.80
74101;DHT22;62462;52.530;21.682;2023-04-28T08:12:26;11.10;42.80
74101;DHT22;62462;52.530;21.682;2023-04-28T08:14:51;11.00;42.10
74101;DHT22;62462;52.530;21.682;2023-04-28T08:17:17;11.00;41.80
74101;DHT22;62462;52.530;21.682;2023-04-28T08:19:43;11.00;42.70
74101;DHT22;62462;52.530;21.682;2023-04-28T08:22:11;11.10;44.30
74101;DHT22;62462;52.530;21.682;2023-04-28T08:24:37;11.20;41.20
74101;DHT22;62462;52.530;21.682;2023-04-28T08:27:02;11.40;41.10
74101;DHT22;62462;52.530;21.682;2023-04-28T08:29:29;11.80;39.70
74101;DHT22;62462;52.530;21.682;2023-04-28T08:31:55;11.90;39.40
74101;DHT22;62462;52.530;21.682;2023-04-28T08:34:21;11.80;39.70
74101;DHT22;62462;52.530;21.682;2023-04-28T08:36:47;11.80;40.00
74101;DHT22;62462;52.530;21.682;2023-04-28T08:39:12;11.80;40.40
74101;DHT22;62462;52.530;21.682;2023-04-28T08:41:38;11.80;41.10
74101;DHT22;62462;52.530;21.682;2023-04-28T08:44:08;11.80;39.60
74101;DHT22;62462;52.530;21.682;2023-04-28T08:46:35;11.80;40.60
74101;DHT22;62462;52.530;21.682;2023-04-28T08:49:03;11.80;40.90
74101;DHT22;62462;52.530;21.682;2023-04-28T08:51:34;11.80;39.60
74101;DHT22;62462;52.530;21.682;2023-04-28T08:54:03;11.80;38.80
74101;DHT22;62462;52.530;21.682;2023-04-28T08:56:32;11.70;38.80
74101;DHT22;62462;52.530;21.682;2023-04-28T08:59:03;11.70;39.40
74101;DHT22;62462;52.530;21.682;2023-04-28T09:01:31;11.70;41.20
74101;DHT22;62462;52.530;21.682;2023-04-28T09:04:00;11.80;42.40
74101;DHT22;62462;52.530;21.682;2023-04-28T09:06:34;11.90;41.20
74101;DHT22;62462;52.530;21.682;2023-04-28T09:09:19;11.90;39.20
74101;DHT22;62462;52.530;21.682;2023-04-28T09:14:21;12.10;38.40
74101;DHT22;62462;52.530;21.682;2023-04-28T09:16:47;12.30;39.50
74101;DHT22;62462;52.530;21.682;2023-04-28T09:19:14;12.40;39.80
74101;DHT22;62462;52.530;21.682;2023-04-28T09:21:54;12.40;39.10
74101;DHT22;62462;52.530;21.682;2023-04-28T09:27:02;12.30;36.30
74101;DHT22;62462;52.530;21.682;2023-04-28T09:29:29;12.30;36.80
74101;DHT22;62462;52.530;21.682;2023-04-28T09:32:15;12.40;37.90
74101;DHT22;62462;52.530;21.682;2023-04-28T09:34:48;12.60;39.80
74101;DHT22;62462;52.530;21.682;2023-04-28T09:37:22;13.30;39.60
74101;DHT22;62462;52.530;21.682;2023-04-28T09:39:51;13.90;36.00
74101;DHT22;62462;52.530;21.682;2023-04-28T09:42:36;14.20;37.20
74101;DHT22;62462;52.530;21.682;2023-04-28T09:45:07;14.10;35.00
74101;DHT22;62462;52.530;21.682;2023-04-28T09:47:36;13.80;36.40
74101;DHT22;62462;52.530;21.682;2023-04-28T09:50:04;13.70;38.00
74101;DHT22;62462;52.530;21.682;2023-04-28T09:52:32;13.70;38.00
74101;DHT22;62462;52.530;21.682;2023-04-28T09:55:01;13.70;38.40
74101;DHT22;62462;52.530;21.682;2023-04-28T09:57:29;13.80;38.10
74101;DHT22;62462;52.530;21.682;2023-04-28T09:59:57;14.10;36.10
74101;DHT22;62462;52.530;21.682;2023-04-28T10:02:23;14.30;32.80
74101;DHT22;62462;52.530;21.682;2023-04-28T10:04:50;14.60;35.40
74101;DHT22;62462;52.530;21.682;2023-04-28T10:07:17;15.00;34.20
74101;DHT22;62462;52.530;21.682;2023-04-28T10:09:46;15.30;32.90
74101;DHT22;62462;52.530;21.682;2023-04-28T10:12:15;15.60;35.10
74101;DHT22;62462;52.530;21.682;2023-04-28T10:14:41;15.80;31.70
74101;DHT22;62462;52.530;21.682;2023-04-28T10:17:07;16.00;30.90
74101;DHT22;62462;52.530;21.682;2023-04-28T10:19:34;15.90;29.20
74101;DHT22;62462;52.530;21.682;2023-04-28T10:27:42;14.90;32.30
74101;DHT22;62462;52.530;21.682;2023-04-28T10:30:13;15.30;31.40
74101;DHT22;62462;52.530;21.682;2023-04-28T10:32:39;15.60;32.20
74101;DHT22;62462;52.530;21.682;2023-04-28T10:38:06;16.40;29.80
74101;DHT22;62462;52.530;21.682;2023-04-28T10:40:46;16.10;30.10
74101;DHT22;62462;52.530;21.682;2023-04-28T10:45:57;15.70;30.10
74101;DHT22;62462;52.530;21.682;2023-04-28T10:56:21;15.60;30.20
74101;DHT22;62462;52.530;21.682;2023-04-28T10:58:58;15.60;30.90
74101;DHT22;62462;52.530;21.682;2023-04-28T11:01:31;16.00;31.50
74101;DHT22;62462;52.530;21.682;2023-04-28T11:04:06;16.20;29.80
74101;DHT22;62462;52.530;21.682;2023-04-28T11:16:59;17.10;28.80
74101;DHT22;62462;52.530;21.682;2023-04-28T11:19:30;17.10;28.20
74101;DHT22;62462;52.530;21.682;2023-04-28T11:21:59;17.10;28.10
74101;DHT22;62462;52.530;21.682;2023-04-28T11:24:26;17.10;28.80
74101;DHT22;62462;52.530;21.682;2023-04-28T11:26:59;17.10;28.30
74101;DHT22;62462;52.530;21.682;2023-04-28T11:29:35;17.20;29.80
74101;DHT22;62462;52.530;21.682;2023-04-28T11:32:05;17.00;28.40
74101;DHT22;62462;52.530;21.682;2023-04-28T11:34:32;16.50;27.90
74101;DHT22;62462;52.530;21.682;2023-04-28T11:36:58;15.90;28.50
74101;DHT22;62462;52.530;21.682;2023-04-28T11:39:26;15.60;28.80
74101;DHT22;62462;52.530;21.682;2023-04-28T11:41:55;15.40;30.20
74101;DHT22;62462;52.530;21.682;2023-04-28T11:44:23;15.70;32.20
74101;DHT22;62462;52.530;21.682;2023-04-28T11:46:54;16.00;29.70
74101;DHT22;62462;52.530;21.682;2023-04-28T11:49:25;16.40;29.90
74101;DHT22;62462;52.530;21.682;2023-04-28T11:51:56;16.70;28.20
74101;DHT22;62462;52.530;21.682;2023-04-28T11:54:23;16.80;28.20
74101;DHT22;62462;52.530;21.682;2023-04-28T11:56:50;16.80;27.70
74101;DHT22;62462;52.530;21.682;2023-04-28T11:59:16;16.80;28.10
74101;DHT22;62462;52.530;21.682;2023-04-28T12:04:13;17.10;27.20
74101;DHT22;62462;52.530;21.682;2023-04-28T12:06:40;16.80;28.40
74101;DHT22;62462;52.530;21.682;2023-04-28T12:09:18;16.30;27.10
74101;DHT22;62462;52.530;21.682;2023-04-28T12:12:03;15.90;28.80
74101;DHT22;62462;52.530;21.682;2023-04-28T12:14:30;15.80;29.30
74101;DHT22;62462;52.530;21.682;2023-04-28T12:17:01;15.80;29.10
74101;DHT22;62462;52.530;21.682;2023-04-28T12:19:28;16.20;30.70
74101;DHT22;62462;52.530;21.682;2023-04-28T12:24:24;17.20;28.90
74101;DHT22;62462;52.530;21.682;2023-04-28T12:26:51;17.50;28.50
74101;DHT22;62462;52.530;21.682;2023-04-28T12:29:39;17.30;26.60
74101;DHT22;62462;52.530;21.682;2023-04-28T12:32:07;17.00;28.00
74101;DHT22;62462;52.530;21.682;2023-04-28T12:34:34;16.70;28.00
74101;DHT22;62462;52.530;21.682;2023-04-28T12:37:04;16.40;28.10
74101;DHT22;62462;52.530;21.682;2023-04-28T12:39:33;16.40;28.50
74101;DHT22;62462;52.530;21.682;2023-04-28T12:41:59;16.60;29.00
74101;DHT22;62462;52.530;21.682;2023-04-28T12:44:36;16.40;28.80
74101;DHT22;62462;52.530;21.682;2023-04-28T12:47:03;16.10;28.60
74101;DHT22;62462;52.530;21.682;2023-04-28T12:49:30;15.90;29.50
74101;DHT22;62462;52.530;21.682;2023-04-28T12:51:56;15.80;30.10
74101;DHT22;62462;52.530;21.682;2023-04-28T12:54:21;15.60;29.40
74101;DHT22;62462;52.530;21.682;2023-04-28T12:56:48;15.60;29.80
74101;DHT22;62462;52.530;21.682;2023-04-28T12:59:14;15.80;30.00
74101;DHT22;62462;52.530;21.682;2023-04-28T13:01:39;15.70;29.50
74101;DHT22;62462;52.530;21.682;2023-04-28T13:04:05;15.60;29.90
74101;DHT22;62462;52.530;21.682;2023-04-28T13:06:31;15.70;31.10
74101;DHT22;62462;52.530;21.682;2023-04-28T13:08:57;15.80;31.10
74101;DHT22;62462;52.530;21.682;2023-04-28T13:11:23;15.90;29.60
74101;DHT22;62462;52.530;21.682;2023-04-28T13:13:51;15.90;30.90
74101;DHT22;62462;52.530;21.682;2023-04-28T13:16:18;16.10;31.00
74101;DHT22;62462;52.530;21.682;2023-04-28T13:18:44;16.20;30.80
74101;DHT22;62462;52.530;21.682;2023-04-28T13:21:09;16.30;31.20
74101;DHT22;62462;52.530;21.682;2023-04-28T13:23:36;16.30;30.10
74101;DHT22;62462;52.530;21.682;2023-04-28T13:26:01;16.30;31.10
74101;DHT22;62462;52.530;21.682;2023-04-28T13:28:28;16.30;31.30
74101;DHT22;62462;52.530;21.682;2023-04-28T13:30:54;16.30;30.30
74101;DHT22;62462;52.530;21.682;2023-04-28T13:33:20;16.20;29.80
74101;DHT22;62462;52.530;21.682;2023-04-28T13:35:46;16.10;30.50
74101;DHT22;62462;52.530;21.682;2023-04-28T13:38:12;16.10;30.20
74101;DHT22;62462;52.530;21.682;2023-04-28T13:40:37;16.10;29.90
74101;DHT22;62462;52.530;21.682;2023-04-28T13:43:03;16.20;29.80
74101;DHT22;62462;52.530;21.682;2023-04-28T13:45:30;16.20;28.60
74101;DHT22;62462;52.530;21.682;2023-04-28T13:47:56;16.20;29.60
74101;DHT22;62462;52.530;21.682;2023-04-28T13:50:22;16.00;29.20
74101;DHT22;62462;52.530;21.682;2023-04-28T13:52:47;15.90;29.90
74101;DHT22;62462;52.530;21.682;2023-04-28T13:55:13;15.90;30.70
74101;DHT22;62462;52.530;21.682;2023-04-28T13:57:39;16.10;31.90
74101;DHT22;62462;52.530;21.682;2023-04-28T14:00:05;16.40;31.60
74101;DHT22;62462;52.530;21.682;2023-04-28T14:02:32;16.90;31.20
74101;DHT22;62462;52.530;21.682;2023-04-28T14:04:58;17.20;31.20
74101;DHT22;62462;52.530;21.682;2023-04-28T14:07:24;17.30;31.10
74101;DHT22;62462;52.530;21.682;2023-04-28T14:09:49;17.40;31.00
74101;DHT22;62462;52.530;21.682;2023-04-28T14:12:15;17.20;29.00
74101;DHT22;62462;52.530;21.682;2023-04-28T14:14:41;17.00;29.30
74101;DHT22;62462;52.530;21.682;2023-04-28T14:17:07;16.80;29.40
74101;DHT22;62462;52.530;21.682;2023-04-28T14:19:33;16.70;29.10
74101;DHT22;62462;52.530;21.682;2023-04-28T14:21:59;16.80;29.30
74101;DHT22;62462;52.530;21.682;2023-04-28T14:24:25;16.80;29.50
74101;DHT22;62462;52.530;21.682;2023-04-28T14:26:51;16.70;29.30
74101;DHT22;62462;52.530;21.682;2023-04-28T14:29:17;16.80;28.80
74101;DHT22;62462;52.530;21.682;2023-04-28T14:31:43;16.70;28.30
74101;DHT22;62462;52.530;21.682;2023-04-28T14:34:09;16.70;29.30
74101;DHT22;62462;52.530;21.682;2023-04-28T14:36:35;16.90;28.40
74101;DHT22;62462;52.530;21.682;2023-04-28T14:39:02;17.10;28.00
74101;DHT22;62462;52.530;21.682;2023-04-28T14:41:28;17.40;28.70
74101;DHT22;62462;52.530;21.682;2023-04-28T14:43:54;17.50;28.50
74101;DHT22;62462;52.530;21.682;2023-04-28T14:46:21;17.50;27.70
74101;DHT22;62462;52.530;21.682;2023-04-28T14:48:50;17.80;28.10
74101;DHT22;62462;52.530;21.682;2023-04-28T14:51:19;17.80;27.50
74101;DHT22;62462;52.530;21.682;2023-04-28T14:53:46;17.80;27.70
74101;DHT22;62462;52.530;21.682;2023-04-28T14:56:12;17.90;28.10
74101;DHT22;62462;52.530;21.682;2023-04-28T14:58:38;18.00;28.80
74101;DHT22;62462;52.530;21.682;2023-04-28T15:01:04;18.20;28.30
74101;DHT22;62462;52.530;21.682;2023-04-28T15:03:30;18.30;28.50
74101;DHT22;62462;52.530;21.682;2023-04-28T15:05:56;18.50;28.10
74101;DHT22;62462;52.530;21.682;2023-04-28T15:08:22;18.60;27.10
74101;DHT22;62462;52.530;21.682;2023-04-28T15:10:48;18.60;27.20
74101;DHT22;62462;52.530;21.682;2023-04-28T15:13:13;18.70;27.10
74101;DHT22;62462;52.530;21.682;2023-04-28T15:15:39;18.60;27.30
74101;DHT22;62462;52.530;21.682;2023-04-28T15:18:05;18.40;27.10
74101;DHT22;62462;52.530;21.682;2023-04-28T15:20:31;18.10;27.40
74101;DHT22;62462;52.530;21.682;2023-04-28T15:22:58;17.80;27.90
74101;DHT22;62462;52.530;21.682;2023-04-28T15:25:25;17.80;28.30
74101;DHT22;62462;52.530;21.682;2023-04-28T15:27:51;17.80;28.20
74101;DHT22;62462;52.530;21.682;2023-04-28T15:30:17;17.80;28.10
74101;DHT22;62462;52.530;21.682;2023-04-28T15:32:43;17.80;27.10
74101;DHT22;62462;52.530;21.682;2023-04-28T15:35:10;17.80;26.70
74101;DHT22;62462;52.530;21.682;2023-04-28T15:37:37;17.70;26.60
74101;DHT22;62462;52.530;21.682;2023-04-28T15:40:07;17.60;27.10
74101;DHT22;62462;52.530;21.682;2023-04-28T15:42:34;17.50;27.80
74101;DHT22;62462;52.530;21.682;2023-04-28T15:45:01;17.60;28.30
74101;DHT22;62462;52.530;21.682;2023-04-28T15:47:27;17.60;27.70
74101;DHT22;62462;52.530;21.682;2023-04-28T15:49:57;17.60;28.20
74101;DHT22;62462;52.530;21.682;2023-04-28T15:52:26;17.70;28.60
74101;DHT22;62462;52.530;21.682;2023-04-28T15:54:53;17.80;28.50
74101;DHT22;62462;52.530;21.682;2023-04-28T15:57:19;17.90;28.70
74101;DHT22;62462;52.530;21.682;2023-04-28T15:59:45;17.80;27.40